RYR3CF LIEA-LICJ
Flight info
| Callsign | RYR3CF |
|---|---|
| Flight time | 0h 49m |
| Altitude | 37000 |
| Route | SODIO DCT ALEDI DCT GISIG DCT ERPEM DCT GIANO |
| Aircraft | B738/M-SDE2E3FGHIRWXY/LB1 |
Departure
| Time | 2026-05-06 15:50 |
|---|---|
| Airport | Alghero-Fertilia Airport (LIEA) |
Arrival
| Time | 2026-05-06 16:39 |
|---|---|
| Airport | Falcone–Borsellino Airport (LICJ) |
| Time | Latitude | Longitude | Altitude | Speed | Heading |
|---|---|---|---|---|---|
| 2026-05-06 15:42 | 40.63131 | 8.29476 | 94 ft | 4 kts | 112° |
| 2026-05-06 15:43 | 40.63137 | 8.29444 | 94 ft | 4 kts | 83° |
| 2026-05-06 15:43 | 40.63128 | 8.29415 | 93 ft | 4 kts | 32° |
| 2026-05-06 15:43 | 40.63122 | 8.29410 | 92 ft | 1 kts | 23° |
| 2026-05-06 15:45 | 40.63133 | 8.29417 | 93 ft | 6 kts | 23° |
| 2026-05-06 15:46 | 40.63194 | 8.29453 | 92 ft | 13 kts | 25° |
| 2026-05-06 15:46 | 40.63275 | 8.29481 | 91 ft | 12 kts | 352° |
| 2026-05-06 15:46 | 40.63356 | 8.29459 | 92 ft | 12 kts | 348° |
| 2026-05-06 15:46 | 40.63435 | 8.29459 | 93 ft | 11 kts | 20° |
| 2026-05-06 15:47 | 40.63520 | 8.29510 | 97 ft | 17 kts | 25° |
| 2026-05-06 15:47 | 40.63658 | 8.29593 | 98 ft | 25 kts | 25° |
| 2026-05-06 15:47 | 40.63829 | 8.29695 | 100 ft | 29 kts | 24° |
| 2026-05-06 15:47 | 40.64005 | 8.29801 | 100 ft | 27 kts | 25° |
| 2026-05-06 15:48 | 40.64171 | 8.29901 | 97 ft | 25 kts | 25° |
| 2026-05-06 15:48 | 40.64319 | 8.29990 | 95 ft | 14 kts | 24° |
| 2026-05-06 15:48 | 40.64395 | 8.29978 | 97 ft | 10 kts | 330° |
| 2026-05-06 15:48 | 40.64431 | 8.29905 | 96 ft | 11 kts | 275° |
| 2026-05-06 15:49 | 40.64381 | 8.29787 | 95 ft | 22 kts | 218° |
| 2026-05-06 15:49 | 40.64042 | 8.29578 | 99 ft | 87 kts | 204° |
| 2026-05-06 15:49 | 40.63305 | 8.29135 | 98 ft | 143 kts | 204° |
| 2026-05-06 15:49 | 40.62325 | 8.28534 | 475 ft | 158 kts | 205° |
| 2026-05-06 15:50 | 40.61298 | 8.27950 | 1078 ft | 167 kts | 193° |
| 2026-05-06 15:50 | 40.60100 | 8.27754 | 1584 ft | 180 kts | 188° |
| 2026-05-06 15:50 | 40.58812 | 8.27452 | 2001 ft | 198 kts | 191° |
| 2026-05-06 15:50 | 40.57408 | 8.27107 | 2437 ft | 209 kts | 191° |
| 2026-05-06 15:51 | 40.55951 | 8.26745 | 2912 ft | 218 kts | 191° |
| 2026-05-06 15:51 | 40.54434 | 8.26367 | 3460 ft | 224 kts | 191° |
| 2026-05-06 15:51 | 40.52896 | 8.25987 | 4121 ft | 227 kts | 191° |
| 2026-05-06 15:51 | 40.51341 | 8.25603 | 4803 ft | 228 kts | 191° |
| 2026-05-06 15:52 | 40.49771 | 8.25247 | 5462 ft | 230 kts | 184° |
| 2026-05-06 15:52 | 40.48231 | 8.25707 | 6132 ft | 232 kts | 147° |
| 2026-05-06 15:52 | 40.47124 | 8.27303 | 6484 ft | 251 kts | 114° |
| 2026-05-06 15:52 | 40.46679 | 8.29616 | 6734 ft | 273 kts | 100° |
| 2026-05-06 15:53 | 40.46345 | 8.32124 | 7261 ft | 283 kts | 101° |
| 2026-05-06 15:53 | 40.45994 | 8.34677 | 7944 ft | 287 kts | 102° |
| 2026-05-06 15:53 | 40.45621 | 8.37279 | 8628 ft | 292 kts | 102° |
| 2026-05-06 15:53 | 40.45224 | 8.39907 | 9346 ft | 296 kts | 106° |
| 2026-05-06 15:54 | 40.44312 | 8.42304 | 10007 ft | 295 kts | 134° |
| 2026-05-06 15:54 | 40.42701 | 8.44018 | 10391 ft | 308 kts | 153° |
| 2026-05-06 15:54 | 40.40750 | 8.45379 | 10603 ft | 327 kts | 155° |
| 2026-05-06 15:54 | 40.38681 | 8.46744 | 11128 ft | 336 kts | 156° |
| 2026-05-06 15:55 | 40.36591 | 8.48134 | 11844 ft | 338 kts | 155° |
| 2026-05-06 15:55 | 40.34489 | 8.49560 | 12564 ft | 342 kts | 155° |
| 2026-05-06 15:55 | 40.32370 | 8.51018 | 13286 ft | 346 kts | 155° |
| 2026-05-06 15:55 | 40.30225 | 8.52498 | 13995 ft | 350 kts | 155° |
| 2026-05-06 15:56 | 40.28137 | 8.54157 | 14681 ft | 357 kts | 142° |
| 2026-05-06 15:56 | 40.26542 | 8.56684 | 15418 ft | 364 kts | 126° |
| 2026-05-06 15:56 | 40.25214 | 8.59537 | 16112 ft | 369 kts | 124° |
| 2026-05-06 15:56 | 40.23916 | 8.62468 | 16751 ft | 375 kts | 124° |
| 2026-05-06 15:57 | 40.22612 | 8.65444 | 17428 ft | 379 kts | 124° |
| 2026-05-06 15:57 | 40.21295 | 8.68440 | 18091 ft | 383 kts | 125° |
| 2026-05-06 15:57 | 40.19969 | 8.71432 | 18650 ft | 387 kts | 125° |
| 2026-05-06 15:57 | 40.18605 | 8.74487 | 19207 ft | 390 kts | 125° |
| 2026-05-06 15:58 | 40.17212 | 8.77590 | 19833 ft | 392 kts | 126° |
| 2026-05-06 15:58 | 40.15840 | 8.80633 | 20423 ft | 395 kts | 126° |
| 2026-05-06 15:58 | 40.14435 | 8.83739 | 20988 ft | 398 kts | 126° |
| 2026-05-06 15:58 | 40.13020 | 8.86858 | 21521 ft | 402 kts | 125° |
| 2026-05-06 15:59 | 40.11580 | 8.90026 | 21951 ft | 408 kts | 125° |
| 2026-05-06 15:59 | 40.10123 | 8.93231 | 22489 ft | 411 kts | 125° |
| 2026-05-06 15:59 | 40.08657 | 8.96455 | 23058 ft | 414 kts | 125° |
| 2026-05-06 15:59 | 40.07182 | 8.99694 | 23560 ft | 418 kts | 125° |
| 2026-05-06 16:00 | 40.05691 | 9.02965 | 23988 ft | 421 kts | 125° |
| 2026-05-06 16:00 | 40.04188 | 9.06258 | 24419 ft | 423 kts | 125° |
| 2026-05-06 16:00 | 40.02681 | 9.09559 | 24873 ft | 426 kts | 126° |
| 2026-05-06 16:00 | 40.01160 | 9.12883 | 25350 ft | 427 kts | 126° |
| 2026-05-06 16:01 | 39.99632 | 9.16220 | 25807 ft | 430 kts | 126° |
| 2026-05-06 16:01 | 39.98096 | 9.19570 | 26187 ft | 433 kts | 126° |
| 2026-05-06 16:01 | 39.96541 | 9.22958 | 26611 ft | 435 kts | 127° |
| 2026-05-06 16:01 | 39.94984 | 9.26349 | 27046 ft | 437 kts | 127° |
| 2026-05-06 16:02 | 39.93421 | 9.29749 | 27516 ft | 437 kts | 127° |
| 2026-05-06 16:02 | 39.91854 | 9.33154 | 27871 ft | 441 kts | 128° |
| 2026-05-06 16:02 | 39.90266 | 9.36595 | 28204 ft | 445 kts | 128° |
| 2026-05-06 16:02 | 39.88666 | 9.40061 | 28568 ft | 447 kts | 128° |
| 2026-05-06 16:03 | 39.87058 | 9.43542 | 28959 ft | 449 kts | 128° |
| 2026-05-06 16:03 | 39.85446 | 9.47032 | 29323 ft | 449 kts | 128° |
| 2026-05-06 16:03 | 39.83844 | 9.50497 | 29882 ft | 447 kts | 128° |
| 2026-05-06 16:03 | 39.82237 | 9.53969 | 30234 ft | 449 kts | 129° |
| 2026-05-06 16:04 | 39.80636 | 9.57418 | 30453 ft | 453 kts | 128° |
| 2026-05-06 16:04 | 39.78999 | 9.60937 | 30698 ft | 456 kts | 129° |
| 2026-05-06 16:04 | 39.77358 | 9.64464 | 30991 ft | 457 kts | 129° |
| 2026-05-06 16:04 | 39.75717 | 9.67994 | 31386 ft | 455 kts | 129° |
| 2026-05-06 16:05 | 39.74091 | 9.71492 | 31947 ft | 449 kts | 129° |
| 2026-05-06 16:05 | 39.72496 | 9.74924 | 32656 ft | 439 kts | 129° |
| 2026-05-06 16:05 | 39.70923 | 9.78301 | 32889 ft | 434 kts | 129° |
| 2026-05-06 16:05 | 39.69365 | 9.81633 | 32950 ft | 429 kts | 129° |
| 2026-05-06 16:06 | 39.66282 | 9.88204 | 32952 ft | 426 kts | 130° |
| 2026-05-06 16:06 | 39.63181 | 9.94802 | 32965 ft | 430 kts | 130° |
| 2026-05-06 16:07 | 39.59993 | 10.01358 | 32958 ft | 428 kts | 134° |
| 2026-05-06 16:07 | 39.56473 | 10.07568 | 32958 ft | 426 kts | 135° |
| 2026-05-06 16:08 | 39.52909 | 10.13703 | 32948 ft | 425 kts | 135° |
| 2026-05-06 16:08 | 39.49388 | 10.19812 | 32949 ft | 422 kts | 135° |
| 2026-05-06 16:09 | 39.45900 | 10.25895 | 32940 ft | 419 kts | 135° |
| 2026-05-06 16:09 | 39.42427 | 10.31950 | 32951 ft | 418 kts | 135° |
| 2026-05-06 16:10 | 39.38959 | 10.37984 | 32949 ft | 419 kts | 135° |
| 2026-05-06 16:10 | 39.35502 | 10.43990 | 32958 ft | 419 kts | 135° |
| 2026-05-06 16:11 | 39.32014 | 10.50036 | 32942 ft | 421 kts | 134° |
| 2026-05-06 16:11 | 39.28509 | 10.56103 | 32962 ft | 422 kts | 134° |
| 2026-05-06 16:12 | 39.24992 | 10.62178 | 32951 ft | 424 kts | 134° |
| 2026-05-06 16:12 | 39.21452 | 10.68282 | 32958 ft | 426 kts | 134° |
| 2026-05-06 16:13 | 39.17895 | 10.74404 | 32963 ft | 428 kts | 134° |
| 2026-05-06 16:13 | 39.14317 | 10.80550 | 32957 ft | 429 kts | 134° |
| 2026-05-06 16:14 | 39.10767 | 10.86648 | 32873 ft | 417 kts | 134° |
| 2026-05-06 16:14 | 39.09039 | 10.89615 | 32585 ft | 410 kts | 134° |
| 2026-05-06 16:14 | 39.07340 | 10.92521 | 32249 ft | 406 kts | 135° |
| 2026-05-06 16:15 | 39.05645 | 10.95412 | 31872 ft | 403 kts | 134° |
| 2026-05-06 16:15 | 39.03964 | 10.98280 | 31526 ft | 400 kts | 134° |
| 2026-05-06 16:15 | 39.02292 | 11.01131 | 31172 ft | 398 kts | 134° |
| 2026-05-06 16:15 | 39.00688 | 11.04031 | 30814 ft | 401 kts | 127° |
| 2026-05-06 16:16 | 38.99517 | 11.07309 | 30456 ft | 409 kts | 114° |
| 2026-05-06 16:16 | 38.98791 | 11.10873 | 30015 ft | 416 kts | 105° |
| 2026-05-06 16:16 | 38.98455 | 11.14578 | 29620 ft | 416 kts | 101° |
| 2026-05-06 16:16 | 38.98176 | 11.18277 | 29222 ft | 414 kts | 101° |
| 2026-05-06 16:17 | 38.97894 | 11.21937 | 28850 ft | 411 kts | 101° |
| 2026-05-06 16:17 | 38.97604 | 11.25576 | 28492 ft | 408 kts | 102° |
| 2026-05-06 16:17 | 38.97307 | 11.29189 | 28126 ft | 405 kts | 102° |
| 2026-05-06 16:17 | 38.97006 | 11.32774 | 27759 ft | 402 kts | 102° |
| 2026-05-06 16:18 | 38.96704 | 11.36335 | 27412 ft | 399 kts | 102° |
| 2026-05-06 16:18 | 38.96402 | 11.39863 | 27063 ft | 397 kts | 102° |
| 2026-05-06 16:18 | 38.96100 | 11.43379 | 26717 ft | 395 kts | 102° |
| 2026-05-06 16:18 | 38.95798 | 11.46881 | 26375 ft | 393 kts | 102° |
| 2026-05-06 16:19 | 38.95497 | 11.50369 | 26031 ft | 392 kts | 102° |
| 2026-05-06 16:19 | 38.95196 | 11.53837 | 25690 ft | 390 kts | 102° |
| 2026-05-06 16:19 | 38.94896 | 11.57296 | 25350 ft | 389 kts | 102° |
| 2026-05-06 16:19 | 38.94596 | 11.60733 | 25015 ft | 387 kts | 102° |
| 2026-05-06 16:20 | 38.94296 | 11.64169 | 24676 ft | 386 kts | 102° |
| 2026-05-06 16:20 | 38.93994 | 11.67595 | 24343 ft | 385 kts | 102° |
| 2026-05-06 16:20 | 38.93691 | 11.71014 | 23987 ft | 384 kts | 101° |
| 2026-05-06 16:20 | 38.93388 | 11.74415 | 23655 ft | 384 kts | 101° |
| 2026-05-06 16:21 | 38.93084 | 11.77823 | 23261 ft | 384 kts | 101° |
| 2026-05-06 16:21 | 38.92780 | 11.81219 | 22895 ft | 382 kts | 101° |
| 2026-05-06 16:21 | 38.92477 | 11.84597 | 22541 ft | 380 kts | 101° |
| 2026-05-06 16:21 | 38.92175 | 11.87967 | 22202 ft | 378 kts | 101° |
| 2026-05-06 16:22 | 38.91873 | 11.91311 | 21872 ft | 376 kts | 101° |
| 2026-05-06 16:22 | 38.91505 | 11.94576 | 21544 ft | 370 kts | 109° |
| 2026-05-06 16:22 | 38.90611 | 11.97645 | 21221 ft | 358 kts | 125° |
| 2026-05-06 16:22 | 38.89269 | 12.00269 | 20937 ft | 346 kts | 136° |
| 2026-05-06 16:23 | 38.87728 | 12.02625 | 20632 ft | 343 kts | 137° |
| 2026-05-06 16:23 | 38.86209 | 12.04935 | 20293 ft | 342 kts | 137° |
| 2026-05-06 16:23 | 38.84685 | 12.07258 | 20029 ft | 339 kts | 137° |
| 2026-05-06 16:23 | 38.83169 | 12.09576 | 19612 ft | 341 kts | 137° |
| 2026-05-06 16:24 | 38.81603 | 12.11962 | 18646 ft | 360 kts | 137° |
| 2026-05-06 16:24 | 38.79957 | 12.14472 | 17805 ft | 373 kts | 136° |
| 2026-05-06 16:24 | 38.78292 | 12.17030 | 17338 ft | 372 kts | 136° |
| 2026-05-06 16:24 | 38.76650 | 12.19565 | 17003 ft | 367 kts | 136° |
| 2026-05-06 16:25 | 38.75029 | 12.22068 | 16617 ft | 363 kts | 136° |
| 2026-05-06 16:25 | 38.73422 | 12.24542 | 16200 ft | 361 kts | 136° |
| 2026-05-06 16:25 | 38.71819 | 12.27006 | 15781 ft | 359 kts | 136° |
| 2026-05-06 16:25 | 38.70225 | 12.29452 | 15406 ft | 356 kts | 136° |
| 2026-05-06 16:26 | 38.68642 | 12.31879 | 15007 ft | 354 kts | 136° |
| 2026-05-06 16:26 | 38.67069 | 12.34288 | 14640 ft | 351 kts | 136° |
| 2026-05-06 16:26 | 38.65505 | 12.36681 | 14264 ft | 349 kts | 136° |
| 2026-05-06 16:26 | 38.63955 | 12.39051 | 13909 ft | 347 kts | 136° |
| 2026-05-06 16:27 | 38.62411 | 12.41411 | 13529 ft | 344 kts | 136° |
| 2026-05-06 16:27 | 38.60908 | 12.43710 | 13450 ft | 331 kts | 135° |
| 2026-05-06 16:27 | 38.59935 | 12.45198 | 13241 ft | 328 kts | 135° |
| 2026-05-06 16:27 | 38.58473 | 12.47427 | 12804 ft | 327 kts | 135° |
| 2026-05-06 16:28 | 38.57016 | 12.49644 | 12385 ft | 326 kts | 135° |
| 2026-05-06 16:28 | 38.55562 | 12.51856 | 12012 ft | 323 kts | 135° |
| 2026-05-06 16:28 | 38.54127 | 12.54041 | 11646 ft | 321 kts | 135° |
| 2026-05-06 16:28 | 38.52694 | 12.56219 | 11273 ft | 319 kts | 135° |
| 2026-05-06 16:29 | 38.51270 | 12.58383 | 10901 ft | 317 kts | 135° |
| 2026-05-06 16:29 | 38.49853 | 12.60536 | 10546 ft | 316 kts | 135° |
| 2026-05-06 16:29 | 38.48448 | 12.62668 | 10225 ft | 312 kts | 135° |
| 2026-05-06 16:29 | 38.46859 | 12.64480 | 9925 ft | 302 kts | 150° |
| 2026-05-06 16:30 | 38.45123 | 12.65872 | 9929 ft | 287 kts | 153° |
| 2026-05-06 16:30 | 38.44005 | 12.66732 | 9918 ft | 279 kts | 153° |
| 2026-05-06 16:30 | 38.41805 | 12.68400 | 9566 ft | 275 kts | 153° |
| 2026-05-06 16:30 | 38.40176 | 12.69612 | 9410 ft | 268 kts | 153° |
| 2026-05-06 16:31 | 38.38573 | 12.70797 | 9176 ft | 265 kts | 153° |
| 2026-05-06 16:31 | 38.36974 | 12.71968 | 8864 ft | 265 kts | 153° |
| 2026-05-06 16:31 | 38.35366 | 12.73133 | 8529 ft | 266 kts | 153° |
| 2026-05-06 16:31 | 38.33752 | 12.74288 | 8234 ft | 265 kts | 153° |
| 2026-05-06 16:32 | 38.32095 | 12.75284 | 7938 ft | 263 kts | 161° |
| 2026-05-06 16:32 | 38.30390 | 12.76037 | 7643 ft | 262 kts | 163° |
| 2026-05-06 16:32 | 38.28654 | 12.76756 | 7310 ft | 262 kts | 163° |
| 2026-05-06 16:32 | 38.26912 | 12.77465 | 6924 ft | 264 kts | 163° |
| 2026-05-06 16:33 | 38.25149 | 12.78181 | 6555 ft | 267 kts | 163° |
| 2026-05-06 16:33 | 38.23391 | 12.78889 | 6287 ft | 264 kts | 163° |
| 2026-05-06 16:33 | 38.21638 | 12.79587 | 5987 ft | 263 kts | 163° |
| 2026-05-06 16:34 | 38.18145 | 12.80947 | 5360 ft | 261 kts | 163° |
| 2026-05-06 16:34 | 38.16406 | 12.81587 | 5076 ft | 260 kts | 163° |
| 2026-05-06 16:34 | 38.14663 | 12.82215 | 4781 ft | 260 kts | 163° |
| 2026-05-06 16:34 | 38.12940 | 12.82895 | 4469 ft | 258 kts | 154° |
| 2026-05-06 16:35 | 38.11565 | 12.84307 | 4183 ft | 257 kts | 126° |
| 2026-05-06 16:35 | 38.10889 | 12.86379 | 3971 ft | 254 kts | 104° |
| 2026-05-06 16:35 | 38.10616 | 12.88573 | 3779 ft | 247 kts | 106° |
| 2026-05-06 16:35 | 38.10174 | 12.90616 | 3592 ft | 236 kts | 99° |
| 2026-05-06 16:36 | 38.10412 | 12.92653 | 3319 ft | 235 kts | 68° |
| 2026-05-06 16:36 | 38.11462 | 12.94197 | 3062 ft | 234 kts | 36° |
| 2026-05-06 16:36 | 38.12912 | 12.95050 | 2833 ft | 225 kts | 28° |
| 2026-05-06 16:36 | 38.13959 | 12.96341 | 2538 ft | 203 kts | 73° |
| 2026-05-06 16:37 | 38.14254 | 12.98013 | 2261 ft | 192 kts | 79° |
| 2026-05-06 16:37 | 38.14637 | 12.99638 | 1873 ft | 191 kts | 74° |
| 2026-05-06 16:37 | 38.15082 | 13.01213 | 1505 ft | 188 kts | 70° |
| 2026-05-06 16:37 | 38.15545 | 13.02722 | 1128 ft | 178 kts | 66° |
| 2026-05-06 16:38 | 38.15987 | 13.04143 | 851 ft | 165 kts | 68° |
| 2026-05-06 16:38 | 38.16363 | 13.05432 | 707 ft | 149 kts | 69° |
| 2026-05-06 16:38 | 38.16753 | 13.06630 | 446 ft | 144 kts | 65° |
| 2026-05-06 16:38 | 38.17149 | 13.07764 | 255 ft | 140 kts | 67° |
| 2026-05-06 16:39 | 38.17517 | 13.08903 | 70 ft | 135 kts | 66° |
| 2026-05-06 16:39 | 38.17853 | 13.09898 | 50 ft | 104 kts | 70° |
| 2026-05-06 16:39 | 38.18049 | 13.10485 | 49 ft | 36 kts | 66° |
| 2026-05-06 16:39 | 38.18128 | 13.10717 | 52 ft | 9 kts | 60° |
| 2026-05-06 16:40 | 38.18168 | 13.10715 | 52 ft | 8 kts | 288° |
| 2026-05-06 16:40 | 38.18176 | 13.10645 | 52 ft | 9 kts | 278° |
| 2026-05-06 16:40 | 38.18188 | 13.10522 | 52 ft | 17 kts | 277° |
| 2026-05-06 16:40 | 38.18205 | 13.10406 | 49 ft | 11 kts | 295° |
| 2026-05-06 16:41 | 38.18266 | 13.10355 | 52 ft | 11 kts | 337° |
| 2026-05-06 16:41 | 38.18332 | 13.10315 | 52 ft | 10 kts | 336° |
| 2026-05-06 16:41 | 38.18382 | 13.10288 | 52 ft | 5 kts | 337° |
| 2026-05-06 16:41 | 38.18387 | 13.10253 | 52 ft | 5 kts | 251° |
| 2026-05-06 16:42 | 38.18375 | 13.10213 | 50 ft | 5 kts | 246° |
| 2026-05-06 16:42 | 38.18368 | 13.10194 | 51 ft | 0 kts | 246° |